Time;durP1;ratioP1;P1;durP2;ratioP2;P2;SDS_P1;SDS_P2;PMS_P1;PMS_P2;Temp;Humidity;BMP_temperature;BMP_pressure;BME280_temperature;BME280_humidity;BME280_pressure;Samples;Min_cycle;Max_cycle;Signal;HPM_P1;HPM_P2
2024/01/02 00:01:51;;;;;;;18.63;2.30;;;;;;;-145.18;100.00;47062.81;5046471;28;20123;-68
2024/01/02 00:04:17;;;;;;;15.13;2.67;;;;;;;-145.18;100.00;47058.91;5047434;28;20039;-68
2024/01/02 00:06:42;;;;;;;20.03;3.83;;;;;;;-145.18;100.00;47064.75;5050984;28;20032;-69
2024/01/02 00:09:07;;;;;;;9.23;2.03;;;;;;;-145.18;100.00;47060.84;5048756;28;20045;-69
2024/01/02 00:11:33;;;;;;;7.47;1.80;;;;;;;-145.18;100.00;47060.84;5052075;28;20481;-69
2024/01/02 00:13:58;;;;;;;13.17;2.30;;;;;;;-145.18;100.00;47062.81;5043332;28;20063;-68
2024/01/02 00:16:23;;;;;;;17.23;2.03;;;;;;;-145.18;100.00;47058.91;5046595;28;20056;-69
2024/01/02 00:18:49;;;;;;;13.90;2.47;;;;;;;-145.18;100.00;47058.91;5046577;28;20033;-69
2024/01/02 00:21:14;;;;;;;10.73;1.60;;;;;;;-145.18;100.00;47060.84;5053451;28;20032;-69
2024/01/02 00:23:40;;;;;;;15.97;2.47;;;;;;;-145.18;100.00;47064.75;5053554;28;20502;-69
2024/01/02 00:26:05;;;;;;;9.37;1.57;;;;;;;-145.18;100.00;47064.75;5052001;28;20545;-69
2024/01/02 00:28:30;;;;;;;14.33;1.93;;;;;;;-145.18;100.00;47068.66;5050303;28;20032;-69
2024/01/02 00:30:56;;;;;;;15.20;2.27;;;;;;;-145.18;100.00;47066.72;5076176;28;20040;-69
2024/01/02 00:33:21;;;;;;;14.10;2.83;;;;;;;-145.18;100.00;47064.75;5040560;28;20398;-69
2024/01/02 00:35:47;;;;;;;9.13;1.40;;;;;;;-145.18;100.00;47062.81;5038854;28;20091;-69
2024/01/02 00:38:12;;;;;;;8.30;1.60;;;;;;;-145.18;100.00;47070.63;5037469;28;20030;-69
2024/01/02 00:40:37;;;;;;;11.83;2.60;;;;;;;-145.18;100.00;47066.72;5047229;28;20031;-69
2024/01/02 00:43:03;;;;;;;8.80;1.93;;;;;;;-145.18;100.00;47076.47;5052806;28;20108;-69
2024/01/02 00:45:28;;;;;;;11.90;1.63;;;;;;;-145.18;100.00;47068.66;5052557;28;20028;-69
2024/01/02 00:47:54;;;;;;;6.77;1.57;;;;;;;-145.18;100.00;47066.72;5039634;28;20029;-69
2024/01/02 00:50:21;;;;;;;7.40;1.13;;;;;;;-145.18;100.00;47072.56;5041092;28;20029;-69
2024/01/02 00:52:47;;;;;;;5.10;1.60;;;;;;;-145.18;100.00;47070.63;5038728;28;20076;-69
2024/01/02 00:55:12;;;;;;;6.80;2.17;;;;;;;-145.18;100.00;47070.63;5049434;28;20830;-69
2024/01/02 00:57:37;;;;;;;5.93;1.23;;;;;;;-145.18;100.00;47074.53;5047509;28;20032;-69
2024/01/02 01:00:04;;;;;;;7.00;1.60;;;;;;;-145.18;100.00;47070.63;5052364;28;20521;-69
2024/01/02 01:02:30;;;;;;;2.93;1.03;;;;;;;-145.18;100.00;47068.66;5049617;28;20103;-69
2024/01/02 01:04:55;;;;;;;6.40;1.37;;;;;;;-145.18;100.00;47070.63;5051022;28;20386;-69
2024/01/02 01:07:21;;;;;;;5.37;1.10;;;;;;;-145.18;100.00;47068.66;5047432;28;20154;-70
2024/01/02 01:09:46;;;;;;;6.57;1.30;;;;;;;-145.18;100.00;47072.56;5038846;28;20121;-69
2024/01/02 01:12:12;;;;;;;9.00;1.33;;;;;;;-145.18;100.00;47064.75;5052313;28;20033;-70
2024/01/02 01:14:37;;;;;;;4.03;1.07;;;;;;;-145.18;100.00;47068.66;5052060;28;20043;-69
2024/01/02 01:17:05;;;;;;;5.03;1.10;;;;;;;-145.18;100.00;47068.66;5047805;28;20385;-69
2024/01/02 01:19:31;;;;;;;3.80;0.97;;;;;;;-145.18;100.00;47068.66;5052166;28;20507;-69
2024/01/02 01:21:57;;;;;;;5.43;1.17;;;;;;;-145.18;100.00;47064.75;5047753;28;20270;-69
2024/01/02 01:24:22;;;;;;;6.77;1.10;;;;;;;-145.18;100.00;47070.63;5047614;28;20254;-69
2024/01/02 01:26:52;;;;;;;7.30;1.10;;;;;;;-145.18;100.00;47068.66;5041713;28;20036;-69
2024/01/02 01:29:21;;;;;;;7.80;0.83;;;;;;;-145.18;100.00;47068.66;5045450;28;20040;-69
2024/01/02 01:31:47;;;;;;;5.30;0.77;;;;;;;-145.18;100.00;47068.66;5039347;28;20320;-69
2024/01/02 01:34:12;;;;;;;5.80;1.10;;;;;;;-145.18;100.00;47070.63;5050987;28;20276;-69
2024/01/02 01:36:38;;;;;;;4.03;1.03;;;;;;;-145.18;100.00;47070.63;5049420;28;20273;-69
2024/01/02 01:39:04;;;;;;;3.93;0.80;;;;;;;-145.18;100.00;47066.72;5039954;28;20473;-69
2024/01/02 01:41:30;;;;;;;3.07;1.10;;;;;;;-145.18;100.00;47070.63;5033668;28;20079;-69
2024/01/02 01:43:56;;;;;;;2.33;1.00;;;;;;;-145.18;100.00;47068.66;5032835;28;20770;-69
2024/01/02 01:46:22;;;;;;;2.17;0.83;;;;;;;-145.18;100.00;47070.63;5034084;28;20079;-70
2024/01/02 01:48:48;;;;;;;4.53;0.90;;;;;;;-145.18;100.00;47064.75;5046857;28;20029;-69
2024/01/02 01:51:14;;;;;;;5.73;1.00;;;;;;;-145.18;100.00;47068.66;5035674;28;20267;-69
2024/01/02 01:53:42;;;;;;;2.90;0.80;;;;;;;-145.18;100.00;47072.56;5044570;28;20262;-69
2024/01/02 01:56:07;;;;;;;2.37;1.17;;;;;;;-145.18;100.00;47064.75;5044395;28;20035;-69
2024/01/02 01:58:33;;;;;;;7.00;1.63;;;;;;;-145.18;100.00;47068.66;5044707;28;20341;-69
2024/01/02 02:00:59;;;;;;;2.80;1.10;;;;;;;-145.18;100.00;47070.63;5041940;28;20495;-69
2024/01/02 02:03:26;;;;;;;1.30;0.70;;;;;;;-145.18;100.00;47070.63;5047715;28;20040;-69
2024/01/02 02:05:52;;;;;;;2.10;0.70;;;;;;;-145.18;100.00;47068.66;5046546;28;20480;-69
2024/01/02 02:08:17;;;;;;;7.13;1.63;;;;;;;-145.18;100.00;47070.63;5051534;28;20312;-69
2024/01/02 02:10:43;;;;;;;3.37;0.90;;;;;;;-145.18;100.00;47072.56;5045090;28;20513;-70
2024/01/02 02:13:08;;;;;;;3.40;0.80;;;;;;;-145.18;100.00;47070.63;5043704;28;20037;-69
2024/01/02 02:15:38;;;;;;;2.30;0.60;;;;;;;-145.18;100.00;47068.66;5042404;28;20465;-70
2024/01/02 02:18:04;;;;;;;4.63;0.80;;;;;;;-145.18;100.00;47072.56;5048905;28;20032;-69
2024/01/02 02:20:29;;;;;;;3.57;0.60;;;;;;;-145.18;100.00;47068.66;5050070;28;20631;-69
2024/01/02 02:22:55;;;;;;;3.33;0.67;;;;;;;-145.18;100.00;47068.66;5051568;28;20029;-69
2024/01/02 02:25:20;;;;;;;2.63;0.77;;;;;;;-145.18;100.00;47068.66;5049652;28;20041;-69
2024/01/02 02:27:46;;;;;;;2.93;0.60;;;;;;;-145.18;100.00;47064.75;5081779;28;20037;-69
2024/01/02 02:30:12;;;;;;;2.33;0.53;;;;;;;-145.18;100.00;47064.75;5049376;28;20033;-69
2024/01/02 02:32:38;;;;;;;3.23;0.60;;;;;;;-145.18;100.00;47066.72;5037473;28;20269;-69
2024/01/02 02:35:06;;;;;;;2.53;0.50;;;;;;;-145.18;100.00;47070.63;5046207;28;20468;-70
2024/01/02 02:37:32;;;;;;;2.30;0.70;;;;;;;-145.18;100.00;47070.63;5041130;28;20068;-70
2024/01/02 02:39:57;;;;;;;3.33;0.50;;;;;;;-145.18;100.00;47066.72;5047913;28;20251;-69
2024/01/02 02:42:23;;;;;;;2.50;0.67;;;;;;;-145.18;100.00;47070.63;5033553;28;20074;-69
2024/01/02 02:44:48;;;;;;;2.00;0.70;;;;;;;-145.18;100.00;47070.63;5044796;28;20033;-69
2024/01/02 02:47:13;;;;;;;5.17;0.60;;;;;;;-145.18;100.00;47068.66;5034174;28;20067;-70
2024/01/02 02:49:39;;;;;;;1.40;0.40;;;;;;;-145.18;100.00;47068.66;5036224;28;20039;-69
2024/01/02 02:52:06;;;;;;;4.20;0.70;;;;;;;-145.18;100.00;47072.56;5039528;28;20162;-70
2024/01/02 02:54:31;;;;;;;2.20;0.50;;;;;;;-145.18;100.00;47070.63;5040787;28;20021;-69
2024/01/02 02:56:57;;;;;;;0.83;0.40;;;;;;;-145.18;100.00;47074.53;5040500;28;20635;-70
2024/01/02 02:59:22;;;;;;;1.93;0.60;;;;;;;-145.18;100.00;47074.53;5034900;28;20024;-70
2024/01/02 03:01:47;;;;;;;0.60;0.40;;;;;;;-145.18;100.00;47072.56;5034434;28;20055;-69
2024/01/02 03:04:13;;;;;;;0.90;0.50;;;;;;;-145.18;100.00;47072.56;5047497;28;20075;-69
2024/01/02 03:06:38;;;;;;;0.63;0.53;;;;;;;-145.18;100.00;47074.53;5033433;28;20432;-69
2024/01/02 03:09:04;;;;;;;1.07;0.40;;;;;;;-145.18;100.00;47076.47;5042647;28;20175;-69
2024/01/02 03:11:29;;;;;;;2.40;0.53;;;;;;;-145.18;100.00;47078.44;5043050;28;20025;-69
2024/01/02 03:13:55;;;;;;;0.77;0.37;;;;;;;-145.18;100.00;47074.53;5049446;28;20806;-69
2024/01/02 03:16:23;;;;;;;1.73;0.70;;;;;;;-145.18;100.00;47076.47;5041919;28;20037;-69
2024/01/02 03:18:48;;;;;;;0.73;0.60;;;;;;;-145.18;100.00;47076.47;5044999;28;20441;-70
2024/01/02 03:21:13;;;;;;;1.87;0.70;;;;;;;-145.18;100.00;47076.47;5042609;28;20269;-70
2024/01/02 03:23:40;;;;;;;1.07;0.60;;;;;;;-145.18;100.00;47070.63;5046945;28;20039;-69
2024/01/02 03:26:06;;;;;;;0.90;0.60;;;;;;;-145.18;100.00;47072.56;5048370;28;20036;-70
2024/01/02 03:28:31;;;;;;;1.03;0.63;;;;;;;-145.18;100.00;47076.47;5053197;28;20337;-70
2024/01/02 03:30:57;;;;;;;2.43;0.70;;;;;;;-145.18;100.00;47078.44;5054183;28;20358;-70
2024/01/02 03:33:23;;;;;;;2.20;0.90;;;;;;;-145.18;100.00;47080.38;5054167;28;20032;-70
2024/01/02 03:35:48;;;;;;;3.23;0.87;;;;;;;-145.18;100.00;47082.34;5054213;28;20025;-70
2024/01/02 03:38:14;;;;;;;3.90;0.60;;;;;;;-145.18;100.00;47086.25;5039567;28;20481;-70
2024/01/02 03:40:40;;;;;;;1.70;0.90;;;;;;;-145.18;100.00;47084.28;5044420;28;20048;-70
2024/01/02 03:43:05;;;;;;;1.13;0.50;;;;;;;-145.18;100.00;47086.25;5050596;28;20298;-70
2024/01/02 03:45:31;;;;;;;1.00;0.70;;;;;;;-145.18;100.00;47086.25;5042176;28;20213;-70
2024/01/02 03:47:56;;;;;;;2.97;0.90;;;;;;;-145.18;100.00;47090.16;5052715;28;20040;-70
2024/01/02 03:50:22;;;;;;;0.90;0.80;;;;;;;-145.18;100.00;47094.06;5043179;28;20017;-70
2024/01/02 03:52:47;;;;;;;1.47;0.80;;;;;;;-145.18;100.00;47084.28;5039428;28;20041;-70
2024/01/02 03:55:12;;;;;;;1.20;0.60;;;;;;;-145.18;100.00;47092.09;5034156;28;20041;-70
2024/01/02 03:57:38;;;;;;;1.10;0.80;;;;;;;-145.18;100.00;47090.16;5044837;28;20029;-70
2024/01/02 04:00:05;;;;;;;1.20;0.80;;;;;;;-145.18;100.00;47094.06;5052970;28;20366;-69
2024/01/02 04:02:30;;;;;;;1.73;0.93;;;;;;;-145.18;100.00;47094.06;5053027;28;20036;-70
2024/01/02 04:04:55;;;;;;;1.33;1.07;;;;;;;-145.18;100.00;47094.06;5084368;28;20278;-70
2024/01/02 04:07:22;;;;;;;1.70;1.33;;;;;;;-145.18;100.00;47097.97;5053645;28;20033;-70
2024/01/02 04:09:47;;;;;;;1.50;1.13;;;;;;;-145.18;100.00;47099.91;5051994;28;20053;-70
2024/01/02 04:12:13;;;;;;;1.17;0.90;;;;;;;-145.18;100.00;47107.72;5041546;28;20284;-70
2024/01/02 04:14:38;;;;;;;2.17;1.13;;;;;;;-145.18;100.00;47070.63;5051489;28;20114;-70
2024/01/02 04:17:03;;;;;;;1.30;1.03;;;;;;;-145.18;100.00;47094.06;5037710;28;20053;-70
2024/01/02 04:19:29;;;;;;;1.20;0.90;;;;;;;-145.18;100.00;47099.91;5034602;28;20025;-70
2024/01/02 04:21:54;;;;;;;1.50;1.00;;;;;;;-145.18;100.00;47109.69;5035316;28;20095;-70
2024/01/02 04:24:20;;;;;;;1.23;1.10;;;;;;;-145.18;100.00;47113.59;5053479;28;20085;-70
2024/01/02 04:26:45;;;;;;;1.60;1.10;;;;;;;-145.18;100.00;47113.59;5040974;28;20025;-70
2024/01/02 04:29:10;;;;;;;0.87;0.80;;;;;;;-145.18;100.00;47113.59;5040093;28;20036;-71
2024/01/02 04:31:36;;;;;;;1.17;0.73;;;;;;;-145.18;100.00;47115.56;5041743;28;20064;-70
2024/01/02 04:34:01;;;;;;;0.90;0.67;;;;;;;-145.18;100.00;47121.41;5048596;28;20029;-70
2024/01/02 04:36:27;;;;;;;1.37;0.80;;;;;;;-145.18;100.00;47127.28;5035303;28;20029;-70
2024/01/02 04:38:52;;;;;;;1.10;0.70;;;;;;;-145.18;100.00;47129.22;5050407;28;20048;-71
2024/01/02 04:41:18;;;;;;;1.50;1.03;;;;;;;-145.18;100.00;47135.09;5043084;28;20026;-70
2024/01/02 04:43:44;;;;;;;1.03;0.90;;;;;;;-145.18;100.00;47133.13;5038857;28;20024;-70
2024/01/02 04:46:10;;;;;;;1.87;1.10;;;;;;;-145.18;100.00;47131.19;5042578;28;20028;-71
2024/01/02 04:48:35;;;;;;;1.70;1.37;;;;;;;-145.18;100.00;47140.94;5049446;28;20033;-71
2024/01/02 04:51:00;;;;;;;2.00;1.70;;;;;;;-145.18;100.00;47139.00;5051687;28;20112;-70
2024/01/02 04:53:26;;;;;;;2.27;1.73;;;;;;;-145.18;100.00;47144.84;5052054;28;20029;-71
2024/01/02 04:55:51;;;;;;;2.93;1.60;;;;;;;-145.18;100.00;47133.13;5050762;28;20068;-71
2024/01/02 04:58:16;;;;;;;2.30;1.97;;;;;;;-145.18;100.00;47135.09;5050290;28;20126;-71
2024/01/02 05:00:42;;;;;;;3.37;2.13;;;;;;;-145.18;100.00;47133.13;5052017;28;20614;-71
2024/01/02 05:03:07;;;;;;;3.60;2.43;;;;;;;-145.18;100.00;47140.94;5047258;28;20052;-71
2024/01/02 05:05:32;;;;;;;2.60;2.00;;;;;;;-145.18;100.00;47148.75;5032940;28;20421;-71
2024/01/02 05:07:58;;;;;;;2.70;2.33;;;;;;;-145.18;100.00;47154.63;5045367;28;20037;-71
2024/01/02 05:10:24;;;;;;;3.07;2.50;;;;;;;-145.18;100.00;47158.53;5040438;28;20076;-71
2024/01/02 05:12:50;;;;;;;3.10;2.47;;;;;;;-145.18;100.00;47164.38;5049677;28;20103;-71
2024/01/02 05:15:16;;;;;;;5.23;2.43;;;;;;;-145.18;100.00;47168.28;5042213;28;20032;-81
2024/01/02 05:17:41;;;;;;;3.77;2.60;;;;;;;-145.18;100.00;47170.25;5042108;28;20033;-81
2024/01/02 05:20:08;;;;;;;4.93;2.43;;;;;;;-145.18;100.00;47168.28;5038551;28;20567;-80
2024/01/02 05:22:34;;;;;;;2.73;2.00;;;;;;;-145.18;100.00;47174.16;5043038;28;20025;-80
2024/01/02 05:25:00;;;;;;;3.10;2.30;;;;;;;-145.18;100.00;47176.09;5042031;28;20040;-80
2024/01/02 05:27:25;;;;;;;2.87;2.40;;;;;;;-145.18;100.00;47166.34;5045562;28;20025;-80
2024/01/02 05:29:51;;;;;;;3.17;2.20;;;;;;;-145.18;100.00;47176.09;5037905;28;20117;-80
2024/01/02 05:32:16;;;;;;;2.83;1.80;;;;;;;-145.18;100.00;47174.16;5048924;28;20040;-79
2024/01/02 05:34:42;;;;;;;3.27;1.97;;;;;;;-145.18;100.00;47181.97;5045547;28;20043;-81
2024/01/02 05:37:07;;;;;;;3.47;1.87;;;;;;;-145.18;100.00;47180.03;5038368;28;20025;-81
2024/01/02 05:39:33;;;;;;;2.43;1.77;;;;;;;-145.18;100.00;47180.03;5052067;28;20036;-81
2024/01/02 05:41:58;;;;;;;3.00;1.87;;;;;;;-145.18;100.00;47189.78;5050780;28;20031;-81
2024/01/02 05:44:23;;;;;;;5.20;2.37;;;;;;;-145.18;100.00;47189.78;5051289;28;20396;-80
2024/01/02 05:46:49;;;;;;;7.03;2.93;;;;;;;-145.18;100.00;47185.88;5047266;28;20226;-79
2024/01/02 05:49:14;;;;;;;6.53;3.23;;;;;;;-145.18;100.00;47191.75;5039468;28;20476;-80
2024/01/02 05:51:39;;;;;;;7.17;3.70;;;;;;;-145.18;100.00;47185.88;5050423;28;20053;-80
2024/01/02 05:54:05;;;;;;;9.63;4.20;;;;;;;-145.18;100.00;47189.78;5050567;28;20475;-79
2024/01/02 05:56:30;;;;;;;9.67;4.00;;;;;;;-145.18;100.00;47193.69;5045168;28;20083;-79
2024/01/02 05:58:56;;;;;;;9.47;4.87;;;;;;;-145.18;100.00;47199.56;5039279;28;20029;-78
2024/01/02 06:01:21;;;;;;;12.00;5.47;;;;;;;-145.18;100.00;47195.66;5041252;28;20021;-79
2024/01/02 06:03:46;;;;;;;14.83;5.80;;;;;;;-145.18;100.00;47205.41;5050205;28;20040;-78
2024/01/02 06:06:13;;;;;;;15.57;4.87;;;;;;;-145.18;100.00;47197.59;5047118;28;20040;-78
2024/01/02 06:08:38;;;;;;;20.77;6.70;;;;;;;-145.18;100.00;47195.66;5038320;28;20063;-77
2024/01/02 06:11:05;;;;;;;14.37;4.80;;;;;;;-145.18;100.00;47195.66;5045354;28;20129;-77
2024/01/02 06:13:30;;;;;;;19.43;5.23;;;;;;;-145.18;100.00;47199.56;5044294;28;20475;-77
2024/01/02 06:15:56;;;;;;;15.03;4.70;;;;;;;-145.18;100.00;47195.66;5033127;28;20117;-77
2024/01/02 06:18:21;;;;;;;15.73;5.00;;;;;;;-145.18;100.00;47191.75;5038027;28;20102;-78
2024/01/02 06:20:46;;;;;;;16.50;4.00;;;;;;;-145.18;100.00;47195.66;5048190;28;20036;-77
2024/01/02 06:23:12;;;;;;;17.07;4.10;;;;;;;-145.18;100.00;47189.78;5046170;28;20032;-76
2024/01/02 06:25:38;;;;;;;15.23;3.77;;;;;;;-145.18;100.00;47180.03;5045784;28;20086;-71
2024/01/02 06:28:03;;;;;;;19.53;5.03;;;;;;;-145.18;100.00;47176.09;5045743;28;20033;-71
2024/01/02 06:30:28;;;;;;;10.50;3.17;;;;;;;-145.18;100.00;47172.19;5047423;28;20396;-71
2024/01/02 06:32:54;;;;;;;14.17;3.47;;;;;;;-145.18;100.00;47170.25;5047703;28;20120;-71
2024/01/02 06:35:19;;;;;;;16.53;3.13;;;;;;;-145.18;100.00;47170.25;5042304;28;20086;-71
2024/01/02 06:37:45;;;;;;;25.37;3.73;;;;;;;-145.18;100.00;47164.38;5048801;28;20029;-71
2024/01/02 06:40:10;;;;;;;39.33;5.23;;;;;;;-145.18;100.00;47160.47;5049456;28;20064;-71
2024/01/02 06:42:36;;;;;;;30.67;6.77;;;;;;;-145.18;100.00;47154.63;5045297;28;20059;-71
2024/01/02 06:45:01;;;;;;;28.67;4.80;;;;;;;-145.18;100.00;47148.75;5039607;28;20044;-71
2024/01/02 06:47:27;;;;;;;29.60;3.77;;;;;;;-145.18;100.00;47142.91;5046802;28;20032;-71
2024/01/02 06:49:52;;;;;;;27.20;3.30;;;;;;;-145.18;100.00;47140.94;5043972;28;20170;-71
2024/01/02 06:52:18;;;;;;;25.17;3.47;;;;;;;-145.18;100.00;47139.00;5046382;28;20025;-71
2024/01/02 06:54:43;;;;;;;27.53;3.93;;;;;;;-145.18;100.00;47135.09;5051223;28;20105;-71
2024/01/02 06:57:09;;;;;;;28.00;4.03;;;;;;;-145.18;100.00;47127.28;5033530;28;20025;-71
2024/01/02 06:59:34;;;;;;;33.13;5.00;;;;;;;-145.18;100.00;47123.38;5052724;28;20550;-71
2024/01/02 07:01:59;;;;;;;30.33;3.37;;;;;;;-145.18;100.00;47119.47;5062195;28;20024;-71
2024/01/02 07:04:25;;;;;;;37.77;4.77;;;;;;;-145.18;100.00;47117.50;5055775;28;20365;-71
2024/01/02 07:06:50;;;;;;;27.73;4.80;;;;;;;-145.18;100.00;47113.59;5038560;28;20108;-71
2024/01/02 07:09:16;;;;;;;34.97;4.97;;;;;;;-145.18;100.00;47107.72;5052980;28;20509;-71
2024/01/02 07:11:41;;;;;;;28.90;4.03;;;;;;;-145.18;100.00;47109.69;5040306;28;20041;-71
2024/01/02 07:14:07;;;;;;;35.43;5.23;;;;;;;-145.18;100.00;47099.91;5079145;28;20028;-71
2024/01/02 07:16:32;;;;;;;34.03;4.03;;;;;;;-145.18;100.00;47101.88;5054462;28;20036;-71
2024/01/02 07:18:57;;;;;;;39.60;4.97;;;;;;;-145.18;100.00;47092.09;5046511;28;20033;-71
2024/01/02 07:21:23;;;;;;;29.50;5.90;;;;;;;-145.18;100.00;47090.16;5054812;28;20040;-71
2024/01/02 07:23:48;;;;;;;22.77;3.90;;;;;;;-145.18;100.00;47094.06;5047440;28;20043;-72
2024/01/02 07:26:14;;;;;;;32.47;4.43;;;;;;;-145.18;100.00;47088.19;5043622;28;20477;-71
2024/01/02 07:28:39;;;;;;;21.03;5.33;;;;;;;-145.18;100.00;47090.16;5053568;28;20025;-71
2024/01/02 07:31:04;;;;;;;32.20;4.97;;;;;;;-145.18;100.00;47086.25;5046700;28;20519;-71
2024/01/02 07:33:30;;;;;;;35.97;4.30;;;;;;;-145.18;100.00;47090.16;5049568;28;20116;-71
2024/01/02 07:35:55;;;;;;;34.60;4.60;;;;;;;-145.18;100.00;47080.38;5063211;28;20037;-71
2024/01/02 07:38:25;;;;;;;23.10;3.80;;;;;;;-145.18;100.00;47082.34;5047264;28;20047;-71
2024/01/02 07:40:51;;;;;;;28.50;6.03;;;;;;;-145.18;100.00;47076.47;5050874;28;20428;-71
2024/01/02 07:43:17;;;;;;;29.90;4.57;;;;;;;-145.18;100.00;47074.53;5044869;28;20025;-71
2024/01/02 07:45:42;;;;;;;34.83;4.00;;;;;;;-145.18;100.00;47074.53;5049750;28;20535;-71
2024/01/02 07:48:08;;;;;;;26.27;5.70;;;;;;;-145.18;100.00;47074.53;5043957;28;20108;-71
2024/01/02 07:50:34;;;;;;;40.00;4.63;;;;;;;-145.18;100.00;47072.56;5066503;28;20032;-71
2024/01/02 07:52:59;;;;;;;25.10;4.73;;;;;;;-145.18;100.00;47072.56;5059051;28;20025;-71
2024/01/02 07:55:24;;;;;;;26.47;4.03;;;;;;;-145.18;100.00;47072.56;5063489;28;20498;-71
2024/01/02 07:57:50;;;;;;;28.23;4.70;;;;;;;-145.18;100.00;47066.72;5058246;28;20036;-71
2024/01/02 08:00:16;;;;;;;35.10;4.77;;;;;;;-145.18;100.00;47064.75;5054808;28;20116;-71
2024/01/02 08:02:41;;;;;;;23.87;4.53;;;;;;;-145.18;100.00;47064.75;5044943;28;20112;-72
2024/01/02 08:05:07;;;;;;;31.93;4.97;;;;;;;-145.18;100.00;47062.81;5053169;28;20072;-71
2024/01/02 08:07:32;;;;;;;28.07;4.47;;;;;;;-145.18;100.00;47064.75;5044682;28;20123;-71
2024/01/02 08:09:58;;;;;;;26.67;4.90;;;;;;;-145.18;100.00;47058.91;5039965;28;20501;-71
2024/01/02 08:12:23;;;;;;;28.47;4.97;;;;;;;-145.18;100.00;47060.84;5048850;28;20072;-71
2024/01/02 08:14:49;;;;;;;30.27;4.70;;;;;;;-145.18;100.00;47058.91;5043236;28;20033;-71
2024/01/02 08:17:15;;;;;;;24.73;4.20;;;;;;;-145.18;100.00;47058.91;5051719;28;20029;-71
2024/01/02 08:19:40;;;;;;;31.23;4.70;;;;;;;-145.18;100.00;47055.00;5044280;28;20036;-71
2024/01/02 08:22:07;;;;;;;42.73;10.40;;;;;;;-145.18;100.00;47055.00;5047449;28;20037;-71
2024/01/02 08:24:32;;;;;;;51.90;11.13;;;;;;;-145.18;100.00;47053.03;5044802;28;20033;-71
2024/01/02 08:26:58;;;;;;;55.00;14.37;;;;;;;-145.18;100.00;47053.03;5042054;28;20076;-71
2024/01/02 08:29:23;;;;;;;24.10;4.67;;;;;;;-145.18;100.00;47051.09;5051174;28;20066;-72
2024/01/02 08:31:49;;;;;;;36.70;6.50;;;;;;;-145.18;100.00;47049.13;5053165;28;20064;-72
2024/01/02 08:34:14;;;;;;;33.17;5.17;;;;;;;-145.18;100.00;47049.13;5043163;28;20037;-71
2024/01/02 08:36:39;;;;;;;22.23;4.63;;;;;;;-145.18;100.00;47049.13;5036949;28;20464;-72
2024/01/02 08:39:05;;;;;;;25.40;4.20;;;;;;;-145.18;100.00;47053.03;5035275;28;20065;-71
2024/01/02 08:41:31;;;;;;;25.93;4.07;;;;;;;-145.18;100.00;47053.03;5038328;28;20032;-71
2024/01/02 08:43:57;;;;;;;39.33;4.70;;;;;;;-145.18;100.00;47053.03;5044568;28;20382;-71
2024/01/02 08:46:22;;;;;;;40.30;5.23;;;;;;;-145.18;100.00;47051.09;5051241;28;20029;-71
2024/01/02 08:48:48;;;;;;;27.37;4.17;;;;;;;-145.18;100.00;47051.09;5035725;28;20034;-71
2024/01/02 08:51:13;;;;;;;29.77;5.57;;;;;;;-145.18;100.00;47056.94;5049593;28;20049;-71
2024/01/02 08:53:38;;;;;;;20.93;3.67;;;;;;;-145.18;100.00;47055.00;5041998;28;20048;-71
2024/01/02 08:56:04;;;;;;;23.70;3.53;;;;;;;-145.18;100.00;47058.91;5047820;28;20063;-71
2024/01/02 08:58:29;;;;;;;30.67;4.50;;;;;;;-145.18;100.00;47058.91;5038954;28;20063;-71
2024/01/02 09:00:55;;;;;;;28.70;5.20;;;;;;;-145.18;100.00;47055.00;5050909;28;21345;-71
2024/01/02 09:03:20;;;;;;;26.97;4.97;;;;;;;-145.18;100.00;47056.94;5053027;28;20033;-71
2024/01/02 09:05:46;;;;;;;21.10;3.60;;;;;;;-145.18;100.00;47058.91;5048185;28;20032;-71
2024/01/02 09:08:11;;;;;;;27.70;4.03;;;;;;;-145.18;100.00;47056.94;5043185;28;20032;-71
2024/01/02 09:10:37;;;;;;;25.50;5.43;;;;;;;-145.18;100.00;47060.84;5047113;28;20128;-71
2024/01/02 09:13:02;;;;;;;28.77;4.97;;;;;;;-145.18;100.00;47064.75;5048652;28;20469;-71
2024/01/02 09:15:29;;;;;;;27.03;5.00;;;;;;;-145.18;100.00;47060.84;5046098;28;20025;-71
2024/01/02 09:17:55;;;;;;;27.87;4.00;;;;;;;-145.18;100.00;47060.84;5059832;28;20710;-71
2024/01/02 09:20:20;;;;;;;25.03;4.77;;;;;;;-145.18;100.00;47064.75;5052601;28;20039;-71
2024/01/02 09:22:46;;;;;;;24.90;3.67;;;;;;;-145.18;100.00;47060.84;5058967;28;20063;-71
2024/01/02 09:25:15;;;;;;;20.27;5.90;;;;;;;-145.18;100.00;47056.94;5057752;28;20067;-71
2024/01/02 09:27:43;;;;;;;26.37;3.53;;;;;;;-145.18;100.00;47055.00;5062605;28;20050;-71
2024/01/02 09:30:12;;;;;;;20.27;4.03;;;;;;;-145.18;100.00;47051.09;5057467;28;20024;-71
2024/01/02 09:32:37;;;;;;;15.83;3.63;;;;;;;-145.18;100.00;47055.00;5048754;28;20116;-71
2024/01/02 09:35:04;;;;;;;18.47;2.80;;;;;;;-145.18;100.00;47047.19;5058685;28;20032;-71
2024/01/02 09:37:29;;;;;;;15.53;2.23;;;;;;;-145.18;100.00;47047.19;5062904;28;20044;-71
2024/01/02 09:39:55;;;;;;;13.70;2.50;;;;;;;-145.18;100.00;47043.28;5059921;28;20037;-71
2024/01/02 09:42:42;;;;;;;15.13;2.83;;;;;;;-145.18;100.00;47047.19;5059886;28;20412;-71
2024/01/02 09:45:17;;;;;;;15.37;2.67;;;;;;;-145.18;100.00;47037.41;5062286;28;20031;-71
2024/01/02 09:48:05;;;;;;;12.60;3.50;;;;;;;-145.18;100.00;47031.53;5053651;28;20037;-70
2024/01/02 09:50:34;;;;;;;15.70;3.30;;;;;;;-145.18;100.00;47027.63;5048185;28;20114;-71
2024/01/02 09:53:16;;;;;;;8.60;3.43;;;;;;;-145.18;100.00;47031.53;5059026;28;20121;-71
2024/01/02 09:55:52;;;;;;;13.27;3.63;;;;;;;-145.18;100.00;47031.53;5055069;28;20488;-74
2024/01/02 09:58:29;;;;;;;;;;;;;;;-145.18;100.00;47025.69;5072298;28;20036;-74
2024/01/02 10:01:18;;;;;;;10.40;5.03;;;;;;;-145.18;100.00;47019.81;5052590;28;20324;-74
2024/01/02 10:04:13;;;;;;;9.07;4.60;;;;;;;-145.18;100.00;47023.72;5054655;28;20481;-75
2024/01/02 10:06:48;;;;;;;7.77;5.00;;;;;;;-145.18;100.00;47021.78;5019961;28;20096;-75
2024/01/02 10:09:32;;;;;;;10.87;4.67;;;;;;;-145.18;100.00;47025.69;5047868;28;20098;-75
2024/01/02 10:12:16;;;;;;;17.43;5.30;;;;;;;-145.18;100.00;47029.59;5050991;28;20068;-75
2024/01/02 10:15:17;;;;;;;13.40;5.50;;;;;;;-145.18;100.00;47027.63;5051042;28;20024;-75
2024/01/02 10:18:06;;;;;;;9.67;5.87;;;;;;;-145.18;100.00;47031.53;5056633;28;20095;-74
2024/01/02 10:20:38;;;;;;;9.47;5.80;;;;;;;-145.18;100.00;47031.53;5057764;28;20028;-75
2024/01/02 10:23:59;;;;;;;8.47;6.03;;;;;;;-145.18;100.00;47037.41;5054976;28;20029;-75
2024/01/02 10:26:29;;;;;;;9.67;5.50;;;;;;;-145.18;100.00;47037.41;5060636;28;20518;-74
2024/01/02 10:29:03;;;;;;;12.53;6.13;;;;;;;-145.18;100.00;47037.41;5060869;28;20485;-75
2024/01/02 10:31:29;;;;;;;10.63;6.87;;;;;;;-145.18;100.00;47039.34;5059162;28;20021;-75
2024/01/02 10:34:07;;;;;;;13.67;7.77;;;;;;;-145.18;100.00;47043.28;5061413;28;20411;-75
2024/01/02 10:36:40;;;;;;;8.90;6.40;;;;;;;-145.18;100.00;47047.19;5061147;28;20020;-75
2024/01/02 10:39:15;;;;;;;11.20;7.63;;;;;;;-145.18;100.00;47047.19;5066104;28;20036;-74
2024/01/02 10:41:46;;;;;;;10.98;8.45;;;;;;;-145.18;100.00;47055.00;5063736;28;20511;-75
2024/01/02 10:44:30;;;;;;;10.17;7.93;;;;;;;-145.18;100.00;47058.91;5056513;28;20517;-74
2024/01/02 10:47:01;;;;;;;9.87;7.60;;;;;;;-145.18;100.00;47058.91;5059221;28;20032;-74
2024/01/02 10:49:52;;;;;;;10.77;7.73;;;;;;;-145.18;100.00;47058.91;5063321;28;20022;-75
2024/01/02 10:52:46;;;;;;;8.97;7.97;;;;;;;-145.18;100.00;47064.75;5065518;28;20020;-75
2024/01/02 10:55:55;;;;;;;8.50;7.53;;;;;;;-145.18;100.00;47068.66;5063558;28;20538;-75
2024/01/02 10:58:27;;;;;;;9.77;6.90;;;;;;;-145.18;100.00;47070.63;5064833;28;20045;-75
2024/01/02 11:00:52;;;;;;;7.17;6.07;;;;;;;-145.18;100.00;47068.66;5060984;28;20099;-75
2024/01/02 11:03:19;;;;;;;5.70;5.03;;;;;;;-145.18;100.00;47070.63;5062889;28;20150;-75
2024/01/02 11:05:54;;;;;;;6.00;5.30;;;;;;;-145.18;100.00;47068.66;5058534;28;20017;-75
2024/01/02 11:08:35;;;;;;;3.45;3.13;;;;;;;-145.18;100.00;47068.66;5061014;28;20033;-76